KLM54JD EGLL-EGPF
Flight info
| Callsign | KLM54JD |
|---|---|
| Flight time | 1h 8m |
| Altitude | 32000 |
| Route | ULTIB T420 TNT UN57 POL UN601 RIBEL DCT ASLIB |
| Aircraft | B738/M-SDE2E3FGHIRWXY/LB1 |
Departure
| Time | 2026-05-01 13:58 |
|---|---|
| Airport | London Heathrow Airport (EGLL) |
Arrival
| Time | 2026-05-01 15:07 |
|---|---|
| Airport | Glasgow Airport (EGPF) |
| Time | Latitude | Longitude | Altitude | Speed | Heading |
|---|---|---|---|---|---|
| 2026-05-01 13:19 | 51.46107 | -0.44478 | 87 ft | 0 kts | 294° |
| 2026-05-01 13:41 | 51.46099 | -0.44449 | 90 ft | 4 kts | 301° |
| 2026-05-01 13:41 | 51.46083 | -0.44415 | 88 ft | 4 kts | 317° |
| 2026-05-01 13:41 | 51.46061 | -0.44391 | 87 ft | 4 kts | 345° |
| 2026-05-01 13:42 | 51.46039 | -0.44391 | 87 ft | 1 kts | 24° |
| 2026-05-01 13:48 | 51.46053 | -0.44381 | 89 ft | 3 kts | 24° |
| 2026-05-01 13:48 | 51.46074 | -0.44366 | 87 ft | 3 kts | 24° |
| 2026-05-01 13:49 | 51.46095 | -0.44351 | 86 ft | 3 kts | 24° |
| 2026-05-01 13:49 | 51.46116 | -0.44337 | 87 ft | 3 kts | 24° |
| 2026-05-01 13:49 | 51.46136 | -0.44322 | 89 ft | 3 kts | 22° |
| 2026-05-01 13:49 | 51.46161 | -0.44306 | 86 ft | 5 kts | 23° |
| 2026-05-01 13:50 | 51.46205 | -0.44276 | 88 ft | 9 kts | 23° |
| 2026-05-01 13:50 | 51.46269 | -0.44234 | 88 ft | 10 kts | 16° |
| 2026-05-01 13:50 | 51.46322 | -0.44285 | 85 ft | 10 kts | 286° |
| 2026-05-01 13:50 | 51.46326 | -0.44395 | 85 ft | 10 kts | 268° |
| 2026-05-01 13:51 | 51.46322 | -0.44501 | 85 ft | 10 kts | 266° |
| 2026-05-01 13:51 | 51.46319 | -0.44606 | 88 ft | 9 kts | 268° |
| 2026-05-01 13:51 | 51.46317 | -0.44710 | 89 ft | 10 kts | 271° |
| 2026-05-01 13:51 | 51.46318 | -0.44832 | 88 ft | 13 kts | 269° |
| 2026-05-01 13:52 | 51.46318 | -0.45009 | 88 ft | 19 kts | 270° |
| 2026-05-01 13:52 | 51.46317 | -0.45246 | 89 ft | 24 kts | 270° |
| 2026-05-01 13:52 | 51.46317 | -0.45523 | 91 ft | 24 kts | 270° |
| 2026-05-01 13:52 | 51.46320 | -0.45785 | 89 ft | 23 kts | 271° |
| 2026-05-01 13:53 | 51.46321 | -0.46036 | 88 ft | 22 kts | 269° |
| 2026-05-01 13:53 | 51.46321 | -0.46519 | 86 ft | 21 kts | 270° |
| 2026-05-01 13:53 | 51.46321 | -0.46747 | 85 ft | 20 kts | 270° |
| 2026-05-01 13:54 | 51.46323 | -0.46973 | 86 ft | 20 kts | 271° |
| 2026-05-01 13:54 | 51.46323 | -0.47187 | 87 ft | 19 kts | 269° |
| 2026-05-01 13:54 | 51.46331 | -0.47396 | 90 ft | 18 kts | 279° |
| 2026-05-01 13:54 | 51.46337 | -0.47597 | 87 ft | 15 kts | 263° |
| 2026-05-01 13:55 | 51.46334 | -0.47624 | 89 ft | 2 kts | 254° |
| 2026-05-01 13:55 | 51.46321 | -0.47681 | 89 ft | 10 kts | 245° |
| 2026-05-01 13:55 | 51.46263 | -0.47848 | 89 ft | 22 kts | 245° |
| 2026-05-01 13:55 | 51.46251 | -0.48085 | 86 ft | 21 kts | 270° |
| 2026-05-01 13:56 | 51.46252 | -0.48318 | 82 ft | 21 kts | 270° |
| 2026-05-01 13:56 | 51.46245 | -0.48542 | 87 ft | 20 kts | 275° |
| 2026-05-01 13:56 | 51.46319 | -0.48716 | 85 ft | 19 kts | 329° |
| 2026-05-01 13:56 | 51.46424 | -0.48757 | 89 ft | 11 kts | 1° |
| 2026-05-01 13:57 | 51.46471 | -0.48677 | 88 ft | 10 kts | 76° |
| 2026-05-01 13:57 | 51.46477 | -0.48601 | 88 ft | 11 kts | 86° |
| 2026-05-01 13:57 | 51.46478 | -0.48000 | 86 ft | 79 kts | 90° |
| 2026-05-01 13:57 | 51.46482 | -0.46822 | 88 ft | 129 kts | 89° |
| 2026-05-01 13:58 | 51.46487 | -0.45175 | 202 ft | 157 kts | 93° |
| 2026-05-01 13:58 | 51.46567 | -0.43367 | 457 ft | 176 kts | 91° |
| 2026-05-01 13:58 | 51.46734 | -0.41324 | 824 ft | 190 kts | 77° |
| 2026-05-01 13:58 | 51.47437 | -0.39480 | 1316 ft | 196 kts | 53° |
| 2026-05-01 13:59 | 51.48328 | -0.37788 | 1810 ft | 206 kts | 52° |
| 2026-05-01 13:59 | 51.49302 | -0.35912 | 2049 ft | 230 kts | 52° |
| 2026-05-01 13:59 | 51.50363 | -0.33883 | 2314 ft | 245 kts | 52° |
| 2026-05-01 13:59 | 51.51495 | -0.31698 | 2569 ft | 264 kts | 52° |
| 2026-05-01 14:00 | 51.52531 | -0.29198 | 2982 ft | 271 kts | 71° |
| 2026-05-01 14:00 | 51.53137 | -0.26335 | 3669 ft | 274 kts | 75° |
| 2026-05-01 14:00 | 51.53724 | -0.23453 | 4551 ft | 269 kts | 75° |
| 2026-05-01 14:00 | 51.54335 | -0.20577 | 5204 ft | 275 kts | 69° |
| 2026-05-01 14:01 | 51.55522 | -0.18133 | 5773 ft | 285 kts | 34° |
| 2026-05-01 14:01 | 51.57391 | -0.17031 | 5978 ft | 294 kts | 3° |
| 2026-05-01 14:01 | 51.59353 | -0.17671 | 6006 ft | 289 kts | 328° |
| 2026-05-01 14:01 | 51.60565 | -0.19171 | 6024 ft | 283 kts | 314° |
| 2026-05-01 14:02 | 51.62031 | -0.21280 | 6002 ft | 284 kts | 319° |
| 2026-05-01 14:02 | 51.63536 | -0.23269 | 5997 ft | 282 kts | 312° |
| 2026-05-01 14:02 | 51.64903 | -0.25514 | 5998 ft | 282 kts | 314° |
| 2026-05-01 14:02 | 51.66444 | -0.27502 | 6011 ft | 284 kts | 322° |
| 2026-05-01 14:03 | 51.68057 | -0.29354 | 6001 ft | 285 kts | 322° |
| 2026-05-01 14:03 | 51.69700 | -0.31163 | 5992 ft | 285 kts | 324° |
| 2026-05-01 14:03 | 51.71365 | -0.32900 | 5993 ft | 285 kts | 326° |
| 2026-05-01 14:03 | 51.73049 | -0.34593 | 5991 ft | 285 kts | 326° |
| 2026-05-01 14:04 | 51.74748 | -0.36261 | 6002 ft | 285 kts | 326° |
| 2026-05-01 14:04 | 51.76448 | -0.37907 | 6008 ft | 285 kts | 327° |
| 2026-05-01 14:04 | 51.78154 | -0.39547 | 6003 ft | 286 kts | 327° |
| 2026-05-01 14:04 | 51.79291 | -0.40640 | 6008 ft | 286 kts | 327° |
| 2026-05-01 14:05 | 51.81583 | -0.42852 | 5997 ft | 287 kts | 327° |
| 2026-05-01 14:05 | 51.83293 | -0.44517 | 6001 ft | 287 kts | 327° |
| 2026-05-01 14:05 | 51.84983 | -0.46169 | 6010 ft | 287 kts | 327° |
| 2026-05-01 14:05 | 51.86698 | -0.47847 | 5997 ft | 287 kts | 327° |
| 2026-05-01 14:06 | 51.88425 | -0.49535 | 6006 ft | 286 kts | 327° |
| 2026-05-01 14:06 | 51.90101 | -0.51176 | 5996 ft | 285 kts | 326° |
| 2026-05-01 14:06 | 51.91797 | -0.52839 | 5992 ft | 284 kts | 326° |
| 2026-05-01 14:06 | 51.93485 | -0.54497 | 5999 ft | 284 kts | 326° |
| 2026-05-01 14:07 | 51.95187 | -0.56162 | 5991 ft | 286 kts | 326° |
| 2026-05-01 14:07 | 51.96891 | -0.57822 | 5997 ft | 286 kts | 327° |
| 2026-05-01 14:07 | 51.98597 | -0.59485 | 5988 ft | 286 kts | 327° |
| 2026-05-01 14:08 | 52.01965 | -0.62774 | 5988 ft | 287 kts | 327° |
| 2026-05-01 14:08 | 52.03683 | -0.64453 | 6079 ft | 291 kts | 327° |
| 2026-05-01 14:08 | 52.05422 | -0.66158 | 6778 ft | 290 kts | 327° |
| 2026-05-01 14:08 | 52.07111 | -0.67812 | 7444 ft | 294 kts | 326° |
| 2026-05-01 14:09 | 52.08874 | -0.69541 | 8092 ft | 298 kts | 327° |
| 2026-05-01 14:09 | 52.10654 | -0.71289 | 8781 ft | 301 kts | 326° |
| 2026-05-01 14:09 | 52.12457 | -0.73061 | 9495 ft | 305 kts | 326° |
| 2026-05-01 14:09 | 52.14230 | -0.74809 | 10152 ft | 309 kts | 326° |
| 2026-05-01 14:10 | 52.16105 | -0.76668 | 10540 ft | 325 kts | 326° |
| 2026-05-01 14:10 | 52.18107 | -0.78657 | 10716 ft | 348 kts | 326° |
| 2026-05-01 14:10 | 52.20221 | -0.80755 | 11055 ft | 363 kts | 326° |
| 2026-05-01 14:10 | 52.22303 | -0.82820 | 11620 ft | 368 kts | 326° |
| 2026-05-01 14:11 | 52.24500 | -0.85000 | 12323 ft | 371 kts | 326° |
| 2026-05-01 14:11 | 52.28958 | -0.89421 | 13732 ft | 379 kts | 326° |
| 2026-05-01 14:11 | 52.31104 | -0.91550 | 14342 ft | 383 kts | 326° |
| 2026-05-01 14:12 | 52.33419 | -0.93848 | 15004 ft | 387 kts | 326° |
| 2026-05-01 14:12 | 52.35702 | -0.96118 | 15665 ft | 391 kts | 326° |
| 2026-05-01 14:12 | 52.38035 | -0.98441 | 16325 ft | 394 kts | 326° |
| 2026-05-01 14:12 | 52.40391 | -1.00790 | 17006 ft | 398 kts | 326° |
| 2026-05-01 14:13 | 52.42757 | -1.03152 | 17695 ft | 401 kts | 326° |
| 2026-05-01 14:13 | 52.44347 | -1.04740 | 18127 ft | 403 kts | 326° |
| 2026-05-01 14:13 | 52.47578 | -1.07974 | 18891 ft | 409 kts | 326° |
| 2026-05-01 14:13 | 52.49928 | -1.10334 | 19440 ft | 412 kts | 326° |
| 2026-05-01 14:14 | 52.51545 | -1.11971 | 19823 ft | 414 kts | 326° |
| 2026-05-01 14:14 | 52.54707 | -1.15182 | 20543 ft | 418 kts | 325° |
| 2026-05-01 14:14 | 52.57192 | -1.17707 | 21074 ft | 421 kts | 325° |
| 2026-05-01 14:14 | 52.59700 | -1.20248 | 21618 ft | 425 kts | 325° |
| 2026-05-01 14:15 | 52.62210 | -1.22789 | 22155 ft | 428 kts | 325° |
| 2026-05-01 14:15 | 52.64754 | -1.25367 | 22684 ft | 431 kts | 325° |
| 2026-05-01 14:15 | 52.67314 | -1.27965 | 23198 ft | 434 kts | 325° |
| 2026-05-01 14:15 | 52.69892 | -1.30588 | 23695 ft | 437 kts | 325° |
| 2026-05-01 14:16 | 52.72489 | -1.33230 | 24137 ft | 440 kts | 325° |
| 2026-05-01 14:16 | 52.75096 | -1.35883 | 24516 ft | 442 kts | 325° |
| 2026-05-01 14:16 | 52.76834 | -1.37653 | 24820 ft | 443 kts | 325° |
| 2026-05-01 14:16 | 52.80347 | -1.41235 | 25425 ft | 444 kts | 325° |
| 2026-05-01 14:17 | 52.82986 | -1.43932 | 25842 ft | 446 kts | 325° |
| 2026-05-01 14:17 | 52.85577 | -1.46583 | 26228 ft | 448 kts | 325° |
| 2026-05-01 14:17 | 52.88268 | -1.49341 | 26635 ft | 451 kts | 325° |
| 2026-05-01 14:17 | 52.90035 | -1.51155 | 26901 ft | 452 kts | 325° |
| 2026-05-01 14:18 | 52.93595 | -1.54815 | 27388 ft | 456 kts | 325° |
| 2026-05-01 14:18 | 52.96295 | -1.57595 | 27724 ft | 458 kts | 325° |
| 2026-05-01 14:18 | 52.99010 | -1.60393 | 28093 ft | 460 kts | 325° |
| 2026-05-01 14:18 | 53.00797 | -1.62237 | 28339 ft | 461 kts | 325° |
| 2026-05-01 14:19 | 53.03455 | -1.64984 | 28790 ft | 461 kts | 325° |
| 2026-05-01 14:19 | 53.06247 | -1.67621 | 29244 ft | 463 kts | 333° |
| 2026-05-01 14:19 | 53.09238 | -1.69624 | 29744 ft | 463 kts | 337° |
| 2026-05-01 14:19 | 53.12263 | -1.71457 | 30249 ft | 461 kts | 338° |
| 2026-05-01 14:20 | 53.15189 | -1.73195 | 30623 ft | 460 kts | 338° |
| 2026-05-01 14:20 | 53.20887 | -1.76618 | 31319 ft | 459 kts | 338° |
| 2026-05-01 14:20 | 53.23921 | -1.78477 | 31734 ft | 457 kts | 337° |
| 2026-05-01 14:21 | 53.26813 | -1.80267 | 32107 ft | 456 kts | 337° |
| 2026-05-01 14:21 | 53.32813 | -1.84014 | 32142 ft | 461 kts | 337° |
| 2026-05-01 14:22 | 53.41430 | -1.89416 | 32135 ft | 453 kts | 337° |
| 2026-05-01 14:22 | 53.47352 | -1.93144 | 32143 ft | 455 kts | 337° |
| 2026-05-01 14:23 | 53.53283 | -1.96886 | 32139 ft | 456 kts | 337° |
| 2026-05-01 14:23 | 53.59237 | -2.00653 | 32132 ft | 457 kts | 337° |
| 2026-05-01 14:24 | 53.65202 | -2.04438 | 32121 ft | 458 kts | 337° |
| 2026-05-01 14:24 | 53.71131 | -2.08212 | 32145 ft | 457 kts | 337° |
| 2026-05-01 14:25 | 53.76396 | -2.11613 | 32140 ft | 457 kts | 336° |
| 2026-05-01 14:25 | 53.82238 | -2.15676 | 32132 ft | 457 kts | 335° |
| 2026-05-01 14:26 | 53.91066 | -2.21772 | 32135 ft | 456 kts | 336° |
| 2026-05-01 14:27 | 53.96956 | -2.25802 | 32133 ft | 456 kts | 336° |
| 2026-05-01 14:27 | 54.02801 | -2.29950 | 32125 ft | 454 kts | 331° |
| 2026-05-01 14:28 | 54.11100 | -2.37694 | 32141 ft | 453 kts | 328° |
| 2026-05-01 14:28 | 54.16587 | -2.42989 | 32140 ft | 453 kts | 328° |
| 2026-05-01 14:29 | 54.22097 | -2.48228 | 32135 ft | 453 kts | 328° |
| 2026-05-01 14:30 | 54.33146 | -2.58683 | 32127 ft | 453 kts | 328° |
| 2026-05-01 14:31 | 54.41424 | -2.66556 | 32131 ft | 453 kts | 328° |
| 2026-05-01 14:31 | 54.46812 | -2.71698 | 31720 ft | 439 kts | 328° |
| 2026-05-01 14:31 | 54.49453 | -2.74226 | 31359 ft | 434 kts | 328° |
| 2026-05-01 14:32 | 54.52080 | -2.76745 | 30964 ft | 430 kts | 328° |
| 2026-05-01 14:32 | 54.54690 | -2.79252 | 30580 ft | 427 kts | 328° |
| 2026-05-01 14:32 | 54.57287 | -2.81750 | 30194 ft | 425 kts | 328° |
| 2026-05-01 14:32 | 54.59862 | -2.84232 | 29731 ft | 423 kts | 328° |
| 2026-05-01 14:33 | 54.62420 | -2.86699 | 29300 ft | 419 kts | 328° |
| 2026-05-01 14:33 | 54.64954 | -2.89146 | 28896 ft | 416 kts | 328° |
| 2026-05-01 14:33 | 54.67464 | -2.91574 | 28480 ft | 412 kts | 328° |
| 2026-05-01 14:33 | 54.69960 | -2.93992 | 28081 ft | 409 kts | 328° |
| 2026-05-01 14:34 | 54.72401 | -2.96361 | 27678 ft | 406 kts | 328° |
| 2026-05-01 14:34 | 54.74855 | -2.98745 | 27284 ft | 403 kts | 328° |
| 2026-05-01 14:34 | 54.77320 | -3.01144 | 26886 ft | 400 kts | 328° |
| 2026-05-01 14:34 | 54.79707 | -3.03468 | 26503 ft | 397 kts | 328° |
| 2026-05-01 14:35 | 54.82109 | -3.05810 | 26127 ft | 395 kts | 328° |
| 2026-05-01 14:35 | 54.84503 | -3.08147 | 25766 ft | 393 kts | 328° |
| 2026-05-01 14:35 | 54.86880 | -3.10469 | 25411 ft | 393 kts | 327° |
| 2026-05-01 14:35 | 54.89269 | -3.12806 | 25020 ft | 394 kts | 327° |
| 2026-05-01 14:36 | 54.91666 | -3.15155 | 24641 ft | 395 kts | 328° |
| 2026-05-01 14:36 | 54.94054 | -3.17498 | 24262 ft | 394 kts | 327° |
| 2026-05-01 14:36 | 54.96440 | -3.19841 | 23888 ft | 393 kts | 327° |
| 2026-05-01 14:36 | 54.98827 | -3.22188 | 23448 ft | 393 kts | 327° |
| 2026-05-01 14:37 | 55.01203 | -3.24527 | 23037 ft | 391 kts | 327° |
| 2026-05-01 14:37 | 55.03560 | -3.26853 | 22637 ft | 389 kts | 327° |
| 2026-05-01 14:37 | 55.05912 | -3.29179 | 22282 ft | 386 kts | 328° |
| 2026-05-01 14:37 | 55.08243 | -3.31490 | 21900 ft | 384 kts | 328° |
| 2026-05-01 14:38 | 55.10563 | -3.33793 | 21528 ft | 382 kts | 327° |
| 2026-05-01 14:38 | 55.12870 | -3.36086 | 21157 ft | 380 kts | 327° |
| 2026-05-01 14:38 | 55.15167 | -3.38371 | 20796 ft | 379 kts | 327° |
| 2026-05-01 14:38 | 55.17450 | -3.40645 | 20436 ft | 377 kts | 327° |
| 2026-05-01 14:39 | 55.19725 | -3.42914 | 20057 ft | 376 kts | 327° |
| 2026-05-01 14:39 | 55.22022 | -3.45209 | 19473 ft | 382 kts | 327° |
| 2026-05-01 14:39 | 55.24341 | -3.47528 | 18903 ft | 385 kts | 327° |
| 2026-05-01 14:39 | 55.26679 | -3.49870 | 18290 ft | 389 kts | 327° |
| 2026-05-01 14:40 | 55.29046 | -3.52243 | 17619 ft | 392 kts | 327° |
| 2026-05-01 14:40 | 55.31416 | -3.54621 | 17007 ft | 393 kts | 327° |
| 2026-05-01 14:40 | 55.33792 | -3.57009 | 16387 ft | 394 kts | 327° |
| 2026-05-01 14:40 | 55.36170 | -3.59401 | 15794 ft | 394 kts | 327° |
| 2026-05-01 14:41 | 55.38516 | -3.61765 | 15208 ft | 394 kts | 327° |
| 2026-05-01 14:41 | 55.40900 | -3.64172 | 14610 ft | 395 kts | 327° |
| 2026-05-01 14:41 | 55.43287 | -3.66585 | 14014 ft | 395 kts | 327° |
| 2026-05-01 14:41 | 55.45672 | -3.68999 | 13358 ft | 395 kts | 327° |
| 2026-05-01 14:42 | 55.48052 | -3.71411 | 12727 ft | 393 kts | 327° |
| 2026-05-01 14:42 | 55.50420 | -3.73813 | 12120 ft | 391 kts | 327° |
| 2026-05-01 14:42 | 55.52771 | -3.76202 | 11514 ft | 389 kts | 327° |
| 2026-05-01 14:42 | 55.55112 | -3.78586 | 10938 ft | 388 kts | 327° |
| 2026-05-01 14:43 | 55.57444 | -3.80964 | 10450 ft | 384 kts | 327° |
| 2026-05-01 14:43 | 55.59722 | -3.83289 | 10295 ft | 371 kts | 327° |
| 2026-05-01 14:43 | 55.61923 | -3.85537 | 10220 ft | 358 kts | 327° |
| 2026-05-01 14:43 | 55.64028 | -3.87692 | 10196 ft | 342 kts | 327° |
| 2026-05-01 14:44 | 55.66016 | -3.89728 | 10188 ft | 326 kts | 326° |
| 2026-05-01 14:44 | 55.69774 | -3.93584 | 10197 ft | 300 kts | 326° |
| 2026-05-01 14:44 | 55.71694 | -3.94987 | 10187 ft | 294 kts | 348° |
| 2026-05-01 14:45 | 55.73664 | -3.94876 | 10205 ft | 283 kts | 13° |
| 2026-05-01 14:45 | 55.76762 | -3.91020 | 10214 ft | 272 kts | 60° |
| 2026-05-01 14:45 | 55.77483 | -3.88000 | 10211 ft | 269 kts | 82° |
| 2026-05-01 14:46 | 55.77538 | -3.84725 | 10215 ft | 264 kts | 104° |
| 2026-05-01 14:46 | 55.75884 | -3.79153 | 10205 ft | 253 kts | 142° |
| 2026-05-01 14:46 | 55.74457 | -3.77391 | 10216 ft | 249 kts | 152° |
| 2026-05-01 14:47 | 55.72971 | -3.75797 | 10206 ft | 250 kts | 153° |
| 2026-05-01 14:47 | 55.71494 | -3.74225 | 10214 ft | 250 kts | 153° |
| 2026-05-01 14:47 | 55.70000 | -3.72638 | 10212 ft | 250 kts | 153° |
| 2026-05-01 14:48 | 55.66946 | -3.69802 | 10196 ft | 244 kts | 172° |
| 2026-05-01 14:48 | 55.65283 | -3.69659 | 10204 ft | 238 kts | 188° |
| 2026-05-01 14:48 | 55.62320 | -3.71902 | 10209 ft | 234 kts | 221° |
| 2026-05-01 14:49 | 55.60734 | -3.76813 | 10213 ft | 239 kts | 257° |
| 2026-05-01 14:49 | 55.61239 | -3.82675 | 10219 ft | 251 kts | 292° |
| 2026-05-01 14:50 | 55.62712 | -3.85953 | 10200 ft | 263 kts | 321° |
| 2026-05-01 14:50 | 55.66895 | -3.90510 | 10201 ft | 264 kts | 324° |
| 2026-05-01 14:51 | 55.68461 | -3.92183 | 10209 ft | 262 kts | 324° |
| 2026-05-01 14:51 | 55.71847 | -3.94939 | 10192 ft | 280 kts | 355° |
| 2026-05-01 14:52 | 55.75321 | -3.92359 | 10201 ft | 278 kts | 53° |
| 2026-05-01 14:52 | 55.76185 | -3.89411 | 10205 ft | 273 kts | 80° |
| 2026-05-01 14:52 | 55.75482 | -3.83184 | 10213 ft | 256 kts | 130° |
| 2026-05-01 14:53 | 55.74237 | -3.81061 | 10199 ft | 249 kts | 151° |
| 2026-05-01 14:53 | 55.72764 | -3.79471 | 10205 ft | 247 kts | 153° |
| 2026-05-01 14:53 | 55.71285 | -3.77911 | 10208 ft | 248 kts | 153° |
| 2026-05-01 14:53 | 55.69803 | -3.76346 | 10210 ft | 248 kts | 153° |
| 2026-05-01 14:54 | 55.68318 | -3.74774 | 10204 ft | 249 kts | 153° |
| 2026-05-01 14:54 | 55.66783 | -3.73499 | 10189 ft | 244 kts | 172° |
| 2026-05-01 14:54 | 55.65125 | -3.73498 | 10211 ft | 238 kts | 194° |
| 2026-05-01 14:54 | 55.63602 | -3.74583 | 10202 ft | 237 kts | 214° |
| 2026-05-01 14:55 | 55.62423 | -3.76597 | 10212 ft | 237 kts | 231° |
| 2026-05-01 14:55 | 55.61571 | -3.79101 | 10199 ft | 240 kts | 249° |
| 2026-05-01 14:55 | 55.61445 | -3.82045 | 10136 ft | 246 kts | 279° |
| 2026-05-01 14:55 | 55.62182 | -3.84794 | 9945 ft | 253 kts | 303° |
| 2026-05-01 14:56 | 55.63475 | -3.86953 | 9660 ft | 261 kts | 322° |
| 2026-05-01 14:56 | 55.65022 | -3.88646 | 9423 ft | 262 kts | 326° |
| 2026-05-01 14:56 | 55.66593 | -3.90267 | 9151 ft | 260 kts | 326° |
| 2026-05-01 14:56 | 55.68145 | -3.91886 | 8877 ft | 259 kts | 325° |
| 2026-05-01 14:57 | 55.69686 | -3.93515 | 8515 ft | 263 kts | 325° |
| 2026-05-01 14:57 | 55.71546 | -3.98413 | 7943 ft | 238 kts | 263° |
| 2026-05-01 14:57 | 55.71425 | -4.01319 | 7698 ft | 236 kts | 261° |
| 2026-05-01 14:58 | 55.71344 | -4.04236 | 7406 ft | 237 kts | 264° |
| 2026-05-01 14:58 | 55.71331 | -4.07167 | 7128 ft | 238 kts | 266° |
| 2026-05-01 14:58 | 55.71375 | -4.10103 | 6868 ft | 238 kts | 268° |
| 2026-05-01 14:58 | 55.71460 | -4.13031 | 6643 ft | 238 kts | 269° |
| 2026-05-01 14:59 | 55.71574 | -4.15948 | 6420 ft | 237 kts | 270° |
| 2026-05-01 14:59 | 55.71708 | -4.18856 | 6167 ft | 235 kts | 271° |
| 2026-05-01 14:59 | 55.71856 | -4.21744 | 5905 ft | 235 kts | 271° |
| 2026-05-01 14:59 | 55.72012 | -4.24623 | 5648 ft | 234 kts | 272° |
| 2026-05-01 15:00 | 55.72336 | -4.30250 | 5084 ft | 230 kts | 272° |
| 2026-05-01 15:00 | 55.72504 | -4.33108 | 4693 ft | 230 kts | 272° |
| 2026-05-01 15:00 | 55.72670 | -4.35899 | 4273 ft | 231 kts | 273° |
| 2026-05-01 15:01 | 55.72842 | -4.38775 | 3902 ft | 230 kts | 273° |
| 2026-05-01 15:01 | 55.73011 | -4.41579 | 3599 ft | 228 kts | 273° |
| 2026-05-01 15:01 | 55.73176 | -4.44337 | 3254 ft | 228 kts | 274° |
| 2026-05-01 15:01 | 55.73345 | -4.47134 | 2885 ft | 227 kts | 273° |
| 2026-05-01 15:02 | 55.73511 | -4.49860 | 2798 ft | 212 kts | 273° |
| 2026-05-01 15:02 | 55.73563 | -4.50724 | 2800 ft | 206 kts | 273° |
| 2026-05-01 15:02 | 55.73801 | -4.54685 | 2732 ft | 182 kts | 271° |
| 2026-05-01 15:02 | 55.73932 | -4.56887 | 2730 ft | 181 kts | 272° |
| 2026-05-01 15:03 | 55.74063 | -4.59128 | 2745 ft | 184 kts | 272° |
| 2026-05-01 15:03 | 55.74527 | -4.61244 | 2715 ft | 190 kts | 312° |
| 2026-05-01 15:03 | 55.75698 | -4.62210 | 2607 ft | 192 kts | 0° |
| 2026-05-01 15:03 | 55.76896 | -4.61386 | 2504 ft | 184 kts | 40° |
| 2026-05-01 15:04 | 55.77566 | -4.60481 | 2428 ft | 184 kts | 38° |
| 2026-05-01 15:04 | 55.78582 | -4.59083 | 2260 ft | 186 kts | 42° |
| 2026-05-01 15:04 | 55.79581 | -4.57554 | 2006 ft | 193 kts | 46° |
| 2026-05-01 15:04 | 55.80535 | -4.55843 | 1768 ft | 192 kts | 49° |
| 2026-05-01 15:05 | 55.81442 | -4.54131 | 1474 ft | 187 kts | 49° |
| 2026-05-01 15:05 | 55.82331 | -4.52459 | 1222 ft | 186 kts | 49° |
| 2026-05-01 15:05 | 55.83213 | -4.50804 | 976 ft | 182 kts | 49° |
| 2026-05-01 15:05 | 55.84083 | -4.49170 | 705 ft | 181 kts | 47° |
| 2026-05-01 15:06 | 55.84916 | -4.47608 | 463 ft | 164 kts | 46° |
| 2026-05-01 15:06 | 55.85650 | -4.46233 | 285 ft | 143 kts | 47° |
| 2026-05-01 15:06 | 55.86303 | -4.45008 | 89 ft | 133 kts | 47° |
| 2026-05-01 15:06 | 55.86913 | -4.43853 | 30 ft | 118 kts | 49° |
| 2026-05-01 15:07 | 55.87371 | -4.42994 | 30 ft | 74 kts | 46° |
| 2026-05-01 15:07 | 55.87630 | -4.42512 | 30 ft | 42 kts | 46° |
| 2026-05-01 15:07 | 55.87734 | -4.42326 | 30 ft | 15 kts | 46° |
| 2026-05-01 15:07 | 55.87721 | -4.42201 | 30 ft | 10 kts | 134° |
| 2026-05-01 15:08 | 55.87661 | -4.42153 | 30 ft | 9 kts | 176° |
| 2026-05-01 15:08 | 55.87601 | -4.42201 | 30 ft | 10 kts | 220° |
| 2026-05-01 15:08 | 55.87551 | -4.42286 | 30 ft | 10 kts | 228° |
| 2026-05-01 15:08 | 55.87506 | -4.42375 | 30 ft | 10 kts | 227° |
| 2026-05-01 15:09 | 55.87461 | -4.42459 | 30 ft | 9 kts | 225° |
| 2026-05-01 15:09 | 55.87413 | -4.42543 | 30 ft | 10 kts | 224° |
| 2026-05-01 15:09 | 55.87351 | -4.42616 | 30 ft | 12 kts | 203° |
| 2026-05-01 15:09 | 55.87262 | -4.42672 | 29 ft | 15 kts | 199° |
| 2026-05-01 15:10 | 55.87169 | -4.42738 | 30 ft | 14 kts | 202° |
| 2026-05-01 15:10 | 55.86995 | -4.42857 | 30 ft | 13 kts | 201° |
| 2026-05-01 15:10 | 55.86914 | -4.42922 | 30 ft | 13 kts | 206° |
| 2026-05-01 15:11 | 55.86853 | -4.43027 | 29 ft | 12 kts | 243° |
| 2026-05-01 15:11 | 55.86803 | -4.43307 | 30 ft | 12 kts | 253° |
| 2026-05-01 15:11 | 55.86784 | -4.43408 | 29 ft | 5 kts | 236° |
| 2026-05-01 15:12 | 55.86754 | -4.43429 | 30 ft | 5 kts | 184° |
| 2026-05-01 15:12 | 55.86715 | -4.43430 | 30 ft | 0 kts | 177° |